Time;durP1;ratioP1;P1;durP2;ratioP2;P2;SDS_P1;SDS_P2;PMS_P1;PMS_P2;Temp;Humidity;BMP_temperature;BMP_pressure;BME280_temperature;BME280_humidity;BME280_pressure;Samples;Min_cycle;Max_cycle;Signal;HPM_P1;HPM_P2
2021/04/25 00:01:36;;;;;;;7.17;5.90;;;9.80;99.90;;;;;;5055346;28;20241;-75
2021/04/25 00:04:02;;;;;;;7.73;4.93;;;9.80;99.90;;;;;;5054048;28;20172;-75
2021/04/25 00:06:28;;;;;;;4.53;4.10;;;9.70;99.90;;;;;;5055213;28;20422;-75
2021/04/25 00:08:53;;;;;;;4.90;3.67;;;9.70;99.90;;;;;;5053808;28;20167;-75
2021/04/25 00:11:19;;;;;;;6.17;4.23;;;9.70;99.90;;;;;;5055200;28;20619;-74
2021/04/25 00:13:45;;;;;;;4.80;4.40;;;9.70;99.90;;;;;;5055046;28;20172;-74
2021/04/25 00:16:11;;;;;;;4.53;4.13;;;9.60;99.90;;;;;;5054877;28;20179;-75
2021/04/25 00:18:44;;;;;;;6.53;4.60;;;9.60;99.90;;;;;;5053625;28;20916;-75
2021/04/25 00:21:10;;;;;;;4.57;4.20;;;9.50;99.90;;;;;;5055201;28;20470;-75
2021/04/25 00:23:37;;;;;;;4.57;4.10;;;9.40;1.00;;;;;;5054765;28;20407;-75
2021/04/25 00:26:03;;;;;;;5.30;4.40;;;9.40;1.00;;;;;;5055051;28;20429;-74
2021/04/25 00:28:29;;;;;;;5.20;4.70;;;9.40;1.00;;;;;;5054728;28;20410;-75
2021/04/25 00:30:54;;;;;;;6.73;4.40;;;9.40;1.00;;;;;;5054716;28;20414;-74
2021/04/25 00:33:20;;;;;;;6.27;5.20;;;9.40;1.00;;;;;;5054495;28;20183;-75
2021/04/25 00:35:46;;;;;;;6.10;4.60;;;9.30;1.00;;;;;;5053037;28;20228;-74
2021/04/25 00:38:11;;;;;;;6.67;4.70;;;9.30;1.40;;;;;;5054579;28;20214;-75
2021/04/25 00:40:37;;;;;;;8.20;4.13;;;9.30;8.80;;;;;;5053113;28;20266;-75
2021/04/25 00:43:03;;;;;;;5.80;4.30;;;9.20;99.90;;;;;;5054518;28;20514;-75
2021/04/25 00:45:28;;;;;;;8.07;4.77;;;9.20;99.90;;;;;;5054476;28;20211;-75
2021/04/25 00:47:54;;;;;;;5.30;4.43;;;9.20;99.90;;;;;;5054264;28;20182;-75
2021/04/25 00:50:24;;;;;;;6.60;4.27;;;9.10;99.90;;;;;;5053144;28;20184;-75
2021/04/25 00:52:51;;;;;;;3.97;3.50;;;9.10;99.90;;;;;;5053556;28;20167;-74
2021/04/25 00:55:18;;;;;;;5.13;4.60;;;9.10;1.00;;;;;;5054039;28;20419;-74
2021/04/25 00:57:45;;;;;;;8.33;4.50;;;9.00;1.00;;;;;;5054165;28;20410;-75
2021/04/25 01:00:13;;;;;;;6.77;5.00;;;9.00;1.00;;;;;;5052576;28;20552;-74
2021/04/25 01:02:39;;;;;;;5.57;4.97;;;9.00;1.00;;;;;;5053932;28;20429;-75
2021/04/25 01:05:08;;;;;;;6.73;5.27;;;9.00;1.00;;;;;;5053942;28;20411;-75
2021/04/25 01:07:33;;;;;;;7.50;4.40;;;9.00;1.00;;;;;;5054022;28;20767;-77
2021/04/25 01:09:59;;;;;;;4.87;4.37;;;8.90;60.70;;;;;;5053861;28;20415;-77
2021/04/25 01:12:25;;;;;;;4.57;4.17;;;9.00;99.90;;;;;;5052560;28;20176;-74
2021/04/25 01:14:50;;;;;;;7.27;4.30;;;8.90;99.90;;;;;;5053898;28;20660;-74
2021/04/25 01:17:16;;;;;;;9.53;5.00;;;8.90;99.90;;;;;;5053697;28;20179;-74
2021/04/25 01:19:42;;;;;;;5.90;4.50;;;8.90;99.90;;;;;;5053985;28;20293;-74
2021/04/25 01:22:08;;;;;;;4.73;4.20;;;8.80;99.90;;;;;;5053951;28;20905;-76
2021/04/25 01:24:33;;;;;;;6.03;4.77;;;8.80;1.00;;;;;;5053700;28;20199;-76
2021/04/25 01:26:59;;;;;;;5.67;5.17;;;8.80;1.00;;;;;;5053690;28;20181;-76
2021/04/25 01:29:27;;;;;;;4.70;4.17;;;8.70;1.00;;;;;;5053038;28;20253;-76
2021/04/25 01:31:53;;;;;;;5.30;4.67;;;8.60;94.30;;;;;;5052174;28;20183;-76
2021/04/25 01:34:19;;;;;;;6.07;4.97;;;8.60;99.90;;;;;;5053379;28;20418;-76
2021/04/25 01:36:44;;;;;;;5.17;4.27;;;8.50;99.90;;;;;;5053315;28;20477;-76
2021/04/25 01:39:10;;;;;;;6.93;4.73;;;8.50;99.90;;;;;;5052036;28;20207;-75
2021/04/25 01:41:36;;;;;;;5.70;4.50;;;8.50;99.90;;;;;;5053316;28;20184;-76
2021/04/25 01:44:03;;;;;;;6.43;4.83;;;8.40;99.90;;;;;;5051985;28;20226;-76
2021/04/25 01:46:28;;;;;;;6.03;4.60;;;8.40;99.90;;;;;;5053232;28;20225;-76
2021/04/25 01:48:54;;;;;;;6.03;4.80;;;8.40;1.00;;;;;;5053412;28;20862;-76
2021/04/25 01:51:19;;;;;;;7.10;5.03;;;8.30;1.00;;;;;;5053198;28;20198;-76
2021/04/25 01:53:45;;;;;;;4.90;4.40;;;8.40;1.00;;;;;;5051872;28;20230;-76
2021/04/25 01:56:11;;;;;;;5.07;4.27;;;8.30;1.00;;;;;;5053083;28;20175;-76
2021/04/25 01:58:37;;;;;;;4.60;4.13;;;8.30;1.00;;;;;;5053028;28;20457;-76
2021/04/25 02:01:04;;;;;;;5.53;4.53;;;8.30;1.00;;;;;;5052950;28;20752;-76
2021/04/25 02:03:30;;;;;;;5.70;4.93;;;8.30;1.00;;;;;;5053127;28;20505;-76
2021/04/25 02:05:56;;;;;;;5.13;4.60;;;8.20;1.00;;;;;;5052983;28;20552;-76
2021/04/25 02:08:21;;;;;;;5.23;4.37;;;8.30;1.00;;;;;;5052929;28;20630;-76
2021/04/25 02:10:49;;;;;;;7.83;4.60;;;8.20;1.00;;;;;;5052913;28;20182;-76
2021/04/25 02:13:15;;;;;;;5.80;4.20;;;8.20;1.00;;;;;;5052873;28;20179;-76
2021/04/25 02:15:40;;;;;;;4.50;4.10;;;8.20;1.00;;;;;;5051426;28;21036;-75
2021/04/25 02:18:06;;;;;;;5.37;4.60;;;8.20;1.00;;;;;;5052731;28;20191;-76
2021/04/25 02:20:33;;;;;;;8.07;5.00;;;8.10;1.00;;;;;;5052805;28;20207;-76
2021/04/25 02:22:58;;;;;;;6.13;5.50;;;8.20;1.00;;;;;;5051377;28;20182;-76
2021/04/25 02:25:24;;;;;;;6.73;4.53;;;8.10;1.00;;;;;;5052798;28;20510;-76
2021/04/25 02:27:51;;;;;;;5.67;5.10;;;8.10;1.00;;;;;;5052834;28;20207;-75
2021/04/25 02:30:19;;;;;;;8.93;5.20;;;8.10;1.00;;;;;;5052497;28;20444;-76
2021/04/25 02:32:45;;;;;;;5.20;4.70;;;8.10;1.00;;;;;;5051382;28;20422;-76
2021/04/25 02:35:12;;;;;;;6.17;5.17;;;8.00;1.00;;;;;;5052738;28;20418;-76
2021/04/25 02:37:38;;;;;;;4.93;4.13;;;8.00;1.00;;;;;;5052399;28;20553;-76
2021/04/25 02:40:09;;;;;;;5.00;4.40;;;8.00;1.00;;;;;;5052487;28;20552;-75
2021/04/25 02:42:35;;;;;;;7.10;5.10;;;7.90;1.00;;;;;;5056136;28;20416;-76
2021/04/25 02:45:01;;;;;;;6.93;5.13;;;7.90;1.00;;;;;;5056708;28;20517;-76
2021/04/25 02:47:27;;;;;;;4.70;3.80;;;7.90;1.00;;;;;;5056625;28;20176;-76
2021/04/25 02:49:52;;;;;;;5.70;4.87;;;7.90;1.00;;;;;;5056546;28;20232;-76
2021/04/25 02:52:18;;;;;;;6.87;4.87;;;7.80;1.00;;;;;;5056715;28;20202;-75
2021/04/25 02:54:43;;;;;;;6.43;5.20;;;7.80;1.00;;;;;;5055155;28;20291;-76
2021/04/25 02:57:09;;;;;;;7.27;5.27;;;7.80;1.00;;;;;;5056415;28;20737;-76
2021/04/25 02:59:35;;;;;;;5.47;4.83;;;7.70;1.00;;;;;;5056559;28;20214;-76
2021/04/25 03:02:00;;;;;;;8.37;5.70;;;7.70;1.00;;;;;;5056337;28;20183;-76
2021/04/25 03:04:26;;;;;;;5.30;4.80;;;7.70;1.00;;;;;;5056416;28;20202;-76
2021/04/25 03:06:51;;;;;;;6.17;4.33;;;7.70;1.00;;;;;;5056174;28;20198;-75
2021/04/25 03:09:17;;;;;;;6.80;4.97;;;7.60;1.00;;;;;;5056176;28;20168;-76
2021/04/25 03:11:42;;;;;;;7.27;4.80;;;7.60;1.00;;;;;;5056160;28;20219;-76
2021/04/25 03:14:08;;;;;;;5.60;5.00;;;7.60;1.00;;;;;;5056356;28;20192;-75
2021/04/25 03:16:34;;;;;;;7.53;4.50;;;7.70;1.00;;;;;;5056198;28;20238;-76
2021/04/25 03:18:59;;;;;;;6.27;5.40;;;7.70;1.00;;;;;;5055909;28;20214;-76
2021/04/25 03:21:25;;;;;;;8.80;6.30;;;7.70;1.00;;;;;;5054511;28;20872;-76
2021/04/25 03:23:50;;;;;;;6.63;5.00;;;7.70;1.00;;;;;;5055885;28;20184;-76
2021/04/25 03:26:16;;;;;;;7.40;5.70;;;7.70;1.00;;;;;;5055762;28;20203;-76
2021/04/25 03:28:42;;;;;;;6.93;5.50;;;7.60;1.00;;;;;;5055800;28;20544;-76
2021/04/25 03:31:07;;;;;;;6.43;5.30;;;7.60;1.00;;;;;;5055828;28;20199;-76
2021/04/25 03:33:33;;;;;;;7.90;6.10;;;7.50;1.00;;;;;;5055841;28;20262;-75
2021/04/25 03:35:58;;;;;;;8.90;5.50;;;7.50;1.00;;;;;;5055597;28;20254;-76
2021/04/25 03:38:25;;;;;;;5.60;5.10;;;7.50;1.00;;;;;;5055640;28;20187;-75
2021/04/25 03:40:52;;;;;;;7.90;4.80;;;7.50;1.00;;;;;;5055474;28;20220;-76
2021/04/25 03:43:19;;;;;;;7.33;5.90;;;7.40;1.00;;;;;;5055778;28;20445;-76
2021/04/25 03:45:45;;;;;;;5.50;4.77;;;7.40;1.00;;;;;;5055686;28;20473;-75
2021/04/25 03:48:11;;;;;;;8.60;6.93;;;7.40;1.00;;;;;;5055646;28;20588;-76
2021/04/25 03:50:36;;;;;;;7.07;5.33;;;7.40;1.00;;;;;;5055543;28;20597;-76
2021/04/25 03:53:02;;;;;;;5.87;5.37;;;7.30;1.00;;;;;;5055024;28;20626;-76
2021/04/25 03:55:27;;;;;;;5.40;4.90;;;7.30;1.00;;;;;;5055397;28;20203;-75
2021/04/25 03:57:53;;;;;;;6.17;4.50;;;7.30;1.00;;;;;;5054093;28;20603;-76
2021/04/25 04:00:20;;;;;;;6.63;5.67;;;7.20;1.00;;;;;;5053965;28;20222;-75
2021/04/25 04:02:45;;;;;;;8.07;6.53;;;7.20;6.40;;;;;;5055285;28;20631;-76
2021/04/25 04:05:12;;;;;;;8.30;5.77;;;7.10;9.20;;;;;;5055291;28;20456;-76
2021/04/25 04:07:37;;;;;;;6.50;5.90;;;7.10;15.40;;;;;;5055185;28;20176;-76
2021/04/25 04:10:04;;;;;;;5.70;5.10;;;7.00;19.60;;;;;;5055002;28;20427;-76
2021/04/25 04:12:30;;;;;;;7.57;6.87;;;6.90;24.90;;;;;;5055047;28;20275;-76
2021/04/25 04:14:55;;;;;;;6.87;5.50;;;7.00;30.60;;;;;;5055069;28;20513;-76
2021/04/25 04:17:21;;;;;;;8.47;6.30;;;7.00;29.90;;;;;;5055078;28;20635;-76
2021/04/25 04:19:47;;;;;;;8.23;4.87;;;6.90;31.60;;;;;;5054896;28;20202;-76
2021/04/25 04:22:12;;;;;;;7.00;6.00;;;7.00;36.50;;;;;;5054948;28;20183;-76
2021/04/25 04:24:41;;;;;;;9.43;5.07;;;6.90;33.70;;;;;;5054773;28;20662;-76
2021/04/25 04:27:07;;;;;;;5.93;5.30;;;6.80;44.40;;;;;;5054783;28;20171;-76
2021/04/25 04:29:33;;;;;;;7.03;6.27;;;6.80;53.20;;;;;;5054804;28;20437;-76
2021/04/25 04:31:59;;;;;;;9.17;6.07;;;6.80;57.90;;;;;;5053500;28;20204;-76
2021/04/25 04:34:25;;;;;;;6.00;5.20;;;6.80;58.30;;;;;;5054663;28;20450;-78
2021/04/25 04:36:50;;;;;;;13.20;6.47;;;6.90;56.70;;;;;;5054395;28;20462;-75
2021/04/25 04:39:16;;;;;;;7.17;5.30;;;6.80;55.40;;;;;;5054406;28;20187;-76
2021/04/25 04:41:42;;;;;;;8.03;6.67;;;6.80;59.50;;;;;;5054591;28;20176;-76
2021/04/25 04:44:07;;;;;;;9.63;6.53;;;6.70;69.80;;;;;;5054727;28;20180;-75
2021/04/25 04:46:33;;;;;;;7.60;6.90;;;6.80;80.20;;;;;;5054419;28;20186;-76
2021/04/25 04:48:59;;;;;;;7.67;5.67;;;6.80;71.30;;;;;;5054342;28;20206;-76
2021/04/25 04:51:25;;;;;;;12.70;7.90;;;6.70;72.80;;;;;;5054279;28;20450;-76
2021/04/25 04:53:50;;;;;;;9.63;8.63;;;6.70;84.40;;;;;;5052926;28;20179;-76
2021/04/25 04:56:16;;;;;;;10.50;9.30;;;6.80;84.60;;;;;;5052963;28;20182;-75
2021/04/25 04:58:42;;;;;;;10.07;9.00;;;6.80;86.60;;;;;;5054218;28;20199;-76
2021/04/25 05:01:07;;;;;;;9.20;6.90;;;6.90;85.80;;;;;;5052708;28;20242;-76
2021/04/25 05:03:33;;;;;;;8.60;6.77;;;7.00;76.80;;;;;;5053130;28;20172;-76
2021/04/25 05:05:59;;;;;;;6.77;6.07;;;6.90;63.80;;;;;;5053998;28;20264;-76
2021/04/25 05:08:25;;;;;;;7.50;6.43;;;6.70;60.70;;;;;;5054000;28;20225;-76
2021/04/25 05:10:50;;;;;;;7.40;6.20;;;6.50;76.60;;;;;;5047925;28;21270;-75
2021/04/25 05:13:16;;;;;;;7.23;6.53;;;6.50;93.00;;;;;;5045152;28;20210;-76
2021/04/25 05:15:42;;;;;;;7.60;6.00;;;6.80;99.30;;;;;;5053424;28;20426;-76
2021/04/25 05:18:08;;;;;;;6.90;5.80;;;7.00;95.30;;;;;;5058320;28;20507;-76
2021/04/25 05:20:34;;;;;;;8.57;6.70;;;7.10;88.60;;;;;;5072573;28;20215;-76
2021/04/25 05:23:00;;;;;;;11.63;6.13;;;7.20;72.60;;;;;;5069191;28;20420;-76
2021/04/25 05:25:26;;;;;;;7.40;6.30;;;7.40;73.00;;;;;;5058897;28;20438;-76
2021/04/25 05:27:52;;;;;;;8.23;5.83;;;7.80;57.10;;;;;;5052410;28;20457;-75
2021/04/25 05:30:18;;;;;;;5.87;5.27;;;8.10;32.20;;;;;;5052409;28;20423;-75
2021/04/25 05:32:44;;;;;;;7.27;5.40;;;8.60;5.30;;;;;;5052450;28;20180;-76
2021/04/25 05:35:10;;;;;;;6.53;5.87;;;8.90;1.00;;;;;;5052416;28;20419;-76
2021/04/25 05:37:36;;;;;;;7.37;5.90;;;9.10;1.00;;;;;;5052105;28;20880;-75
2021/04/25 05:40:04;;;;;;;9.07;5.87;;;9.40;1.00;;;;;;5051550;28;20474;-76
2021/04/25 05:42:29;;;;;;;7.53;6.30;;;9.40;1.00;;;;;;5043420;28;20481;-76
2021/04/25 05:44:55;;;;;;;7.10;5.90;;;9.80;1.00;;;;;;5032375;28;20814;-76
2021/04/25 05:47:21;;;;;;;7.77;6.20;;;10.00;99.90;;;;;;5032273;28;20207;-76
2021/04/25 05:49:46;;;;;;;8.50;6.20;;;10.30;99.90;;;;;;5037177;28;20584;-76
2021/04/25 05:52:12;;;;;;;6.40;5.90;;;10.40;1.00;;;;;;5052050;28;20222;-75
2021/04/25 05:54:38;;;;;;;6.33;5.73;;;10.40;1.00;;;;;;5052001;28;20411;-76
2021/04/25 05:57:06;;;;;;;6.60;6.00;;;10.90;1.00;;;;;;5052045;28;20176;-75
2021/04/25 05:59:31;;;;;;;6.70;6.00;;;11.10;99.90;;;;;;5052071;28;20231;-76
2021/04/25 06:01:57;;;;;;;8.90;6.40;;;11.60;1.00;;;;;;5051994;28;20433;-76
2021/04/25 06:04:22;;;;;;;7.67;6.93;;;11.90;99.90;;;;;;5051974;28;20498;-76
2021/04/25 06:06:48;;;;;;;7.80;6.70;;;12.20;1.00;;;;;;5051925;28;20739;-76
2021/04/25 06:09:13;;;;;;;7.17;6.47;;;12.50;1.00;;;;;;5051857;28;20654;-76
2021/04/25 06:11:39;;;;;;;8.10;7.00;;;12.60;1.00;;;;;;5051728;28;20176;-76
2021/04/25 06:14:05;;;;;;;7.90;7.10;;;12.90;99.90;;;;;;5051582;28;20184;-75
2021/04/25 06:16:31;;;;;;;7.17;6.47;;;12.80;99.90;;;;;;5051604;28;20191;-75
2021/04/25 06:18:57;;;;;;;10.57;7.23;;;12.70;99.90;;;;;;5051751;28;20418;-76
2021/04/25 06:21:22;;;;;;;8.03;7.33;;;12.90;99.90;;;;;;5051464;28;20484;-76
2021/04/25 06:23:48;;;;;;;8.33;7.40;;;12.60;99.90;;;;;;5051643;28;20164;-76
2021/04/25 06:26:15;;;;;;;8.47;7.40;;;12.80;99.90;;;;;;5051634;28;20198;-76
2021/04/25 06:28:40;;;;;;;8.63;7.20;;;12.20;99.90;;;;;;5051028;28;20895;-74
2021/04/25 06:31:06;;;;;;;8.10;7.40;;;12.60;99.90;;;;;;5051404;28;20253;-74
2021/04/25 06:33:32;;;;;;;9.33;8.43;;;12.70;99.90;;;;;;5050329;28;20171;-74
2021/04/25 06:35:57;;;;;;;7.80;7.10;;;12.30;99.90;;;;;;5051098;28;20219;-75
2021/04/25 06:38:23;;;;;;;9.13;8.23;;;12.70;99.90;;;;;;5051629;28;20186;-75
2021/04/25 06:40:49;;;;;;;7.17;6.57;;;13.10;99.90;;;;;;5051619;28;20304;-75
2021/04/25 06:43:15;;;;;;;8.07;7.27;;;13.70;45.80;;;;;;5051421;28;20176;-75
2021/04/25 06:45:41;;;;;;;8.43;7.67;;;13.80;1.00;;;;;;5051585;28;20431;-74
2021/04/25 06:48:07;;;;;;;9.93;7.67;;;13.80;1.00;;;;;;5051215;28;20414;-75
2021/04/25 06:50:32;;;;;;;8.33;7.70;;;14.40;1.00;;;;;;5051291;28;20176;-75
2021/04/25 06:52:58;;;;;;;9.27;7.93;;;14.60;1.00;;;;;;5051526;28;20171;-75
2021/04/25 06:55:25;;;;;;;8.50;7.70;;;14.80;1.00;;;;;;5051388;28;20540;-75
2021/04/25 06:57:51;;;;;;;10.10;8.07;;;14.80;1.00;;;;;;5051259;28;20179;-75
2021/04/25 07:00:19;;;;;;;8.80;8.10;;;15.30;1.00;;;;;;5051133;28;20466;-74
2021/04/25 07:02:45;;;;;;;9.40;8.23;;;15.00;1.00;;;;;;5051116;28;20420;-75
2021/04/25 07:05:11;;;;;;;8.93;8.13;;;14.80;1.00;;;;;;5051054;28;20512;-75
2021/04/25 07:07:36;;;;;;;8.30;7.60;;;14.70;1.00;;;;;;5063143;28;20178;-75
2021/04/25 07:10:04;;;;;;;11.93;9.07;;;15.30;1.00;;;;;;5071235;28;20421;-75
2021/04/25 07:12:29;;;;;;;9.90;8.90;;;15.20;1.00;;;;;;5071094;28;20225;-75
2021/04/25 07:14:57;;;;;;;12.40;9.43;;;15.60;1.00;;;;;;5069719;28;20437;-75
2021/04/25 07:17:25;;;;;;;9.17;8.30;;;15.10;1.00;;;;;;5071259;28;20181;-75
2021/04/25 07:19:51;;;;;;;10.70;8.77;;;15.60;1.00;;;;;;5071037;28;20453;-75
2021/04/25 07:22:17;;;;;;;10.90;9.90;;;15.40;1.00;;;;;;5069742;28;20426;-75
2021/04/25 07:24:42;;;;;;;11.33;8.77;;;15.20;1.00;;;;;;5070185;28;20420;-75
2021/04/25 07:27:08;;;;;;;10.53;9.60;;;15.20;1.00;;;;;;5069087;28;20229;-75
2021/04/25 07:29:34;;;;;;;10.03;8.90;;;15.40;1.00;;;;;;5073385;28;20207;-75
2021/04/25 07:31:59;;;;;;;10.47;9.47;;;15.90;1.00;;;;;;5074316;28;20218;-75
2021/04/25 07:34:26;;;;;;;10.67;9.77;;;16.20;99.90;;;;;;5074948;28;20171;-75
2021/04/25 07:36:52;;;;;;;11.20;10.20;;;16.80;99.90;;;;;;5074486;28;20222;-74
2021/04/25 07:39:18;;;;;;;11.00;10.10;;;16.70;99.90;;;;;;5074530;28;20406;-75
2021/04/25 07:41:44;;;;;;;10.87;9.87;;;15.90;99.90;;;;;;5074600;28;20928;-75
2021/04/25 07:44:09;;;;;;;10.23;9.43;;;16.40;99.90;;;;;;5075017;28;20174;-75
2021/04/25 07:46:38;;;;;;;13.50;9.93;;;16.30;99.90;;;;;;5073489;28;20180;-75
2021/04/25 07:49:04;;;;;;;11.33;10.10;;;16.90;99.90;;;;;;5073308;28;20168;-75
2021/04/25 07:51:29;;;;;;;11.10;10.20;;;16.80;99.90;;;;;;5074515;28;20457;-75
2021/04/25 07:53:56;;;;;;;10.60;9.70;;;17.30;99.90;;;;;;5074205;28;20524;-74
2021/04/25 07:56:22;;;;;;;12.13;11.13;;;18.00;99.90;;;;;;5074174;28;20175;-75
2021/04/25 07:58:48;;;;;;;12.07;11.17;;;17.30;99.90;;;;;;5073147;28;20420;-75
2021/04/25 08:01:15;;;;;;;10.77;9.97;;;17.10;99.90;;;;;;5074147;28;20234;-75
2021/04/25 08:03:40;;;;;;;11.57;10.57;;;16.30;99.90;;;;;;5075395;28;20641;-75
2021/04/25 08:06:06;;;;;;;11.87;10.87;;;16.90;99.90;;;;;;5075456;28;20425;-74
2021/04/25 08:08:32;;;;;;;12.30;11.20;;;16.80;99.90;;;;;;5073964;28;20652;-75
2021/04/25 08:10:58;;;;;;;13.70;12.50;;;17.00;99.90;;;;;;5075206;28;20172;-74
2021/04/25 08:13:24;;;;;;;11.93;10.90;;;17.10;99.90;;;;;;5075247;28;20420;-75
2021/04/25 08:15:50;;;;;;;12.30;11.10;;;18.00;99.90;;;;;;5073120;28;20175;-74
2021/04/25 08:18:15;;;;;;;12.23;10.53;;;18.50;99.90;;;;;;5075202;28;20604;-75
2021/04/25 08:20:41;;;;;;;11.20;10.23;;;18.80;99.90;;;;;;5074796;28;20560;-75
2021/04/25 08:23:07;;;;;;;11.10;10.30;;;18.80;99.90;;;;;;5074753;28;20187;-75
2021/04/25 08:25:33;;;;;;;11.83;10.83;;;19.50;99.90;;;;;;5074943;28;20193;-75
2021/04/25 08:27:59;;;;;;;12.33;11.23;;;18.20;99.90;;;;;;5074795;28;20182;-75
2021/04/25 08:30:24;;;;;;;12.17;11.17;;;19.10;99.90;;;;;;5074723;28;20456;-74
2021/04/25 08:32:50;;;;;;;12.10;11.20;;;19.20;99.90;;;;;;5075492;28;20555;-75
2021/04/25 08:35:18;;;;;;;12.57;11.30;;;19.10;99.90;;;;;;5073386;28;20237;-75
2021/04/25 08:37:43;;;;;;;12.77;11.67;;;19.10;99.90;;;;;;5074268;28;20582;-75
2021/04/25 08:40:09;;;;;;;12.50;11.50;;;18.90;99.90;;;;;;5073582;28;20452;-75
2021/04/25 08:42:35;;;;;;;12.70;11.70;;;18.50;99.90;;;;;;5074575;28;20258;-75
2021/04/25 08:45:03;;;;;;;12.80;11.53;;;19.10;99.90;;;;;;5074457;28;20452;-75
2021/04/25 08:47:29;;;;;;;13.23;12.23;;;19.20;99.90;;;;;;5074602;28;20179;-75
2021/04/25 08:50:00;;;;;;;12.97;11.67;;;20.00;99.90;;;;;;5074460;28;20413;-75
2021/04/25 08:52:28;;;;;;;14.80;13.70;;;19.80;99.90;;;;;;5074477;28;20414;-75
2021/04/25 08:54:53;;;;;;;15.07;13.77;;;19.90;99.90;;;;;;5074187;28;20410;-74
2021/04/25 08:57:19;;;;;;;15.13;13.70;;;19.20;99.90;;;;;;5074380;28;20429;-75
2021/04/25 08:59:45;;;;;;;13.00;12.10;;;18.90;99.90;;;;;;5073997;28;20219;-75
2021/04/25 09:02:11;;;;;;;19.07;17.57;;;18.60;99.90;;;;;;5074259;28;20265;-75
2021/04/25 09:04:36;;;;;;;14.87;13.63;;;19.30;99.90;;;;;;5073875;28;20207;-75
2021/04/25 09:07:04;;;;;;;14.33;13.00;;;19.60;99.90;;;;;;5074031;28;20220;-75
2021/04/25 09:09:55;;;;;;;12.70;11.53;;;19.00;99.90;;;;;;5073969;28;20183;-76
2021/04/25 09:12:41;;;;;;;12.53;11.50;;;20.20;99.90;;;;;;5070038;28;20827;-75
2021/04/25 09:15:13;;;;;;;13.17;11.97;;;20.20;99.90;;;;;;5052096;28;21161;-74
2021/04/25 09:17:58;;;;;;;13.03;12.13;;;20.20;99.90;;;;;;5052925;28;20418;-75
2021/04/25 09:20:39;;;;;;;12.73;11.57;;;19.10;99.90;;;;;;5068715;28;20971;-75
2021/04/25 09:23:07;;;;;;;10.80;9.80;;;20.10;99.90;;;;;;5072805;28;21306;-75
2021/04/25 09:25:34;;;;;;;11.60;10.60;;;19.80;99.90;;;;;;5069456;28;20425;-75
2021/04/25 09:28:17;;;;;;;11.23;10.23;;;18.90;99.90;;;;;;5052491;28;20759;-75
2021/04/25 09:30:56;;;;;;;11.50;10.43;;;19.40;99.90;;;;;;5056760;28;20442;-75
2021/04/25 09:33:26;;;;;;;13.30;11.97;;;19.90;99.90;;;;;;5072449;28;21018;-75
2021/04/25 09:35:52;;;;;;;12.10;11.07;;;20.40;99.90;;;;;;5073022;28;20456;-75
2021/04/25 09:38:18;;;;;;;12.33;11.40;;;19.80;99.90;;;;;;5072583;28;20418;-75
2021/04/25 09:40:47;;;;;;;13.53;12.43;;;20.50;99.90;;;;;;5072626;28;20529;-75
2021/04/25 09:43:14;;;;;;;14.87;11.10;;;20.30;99.90;;;;;;5072340;28;20221;-75
2021/04/25 09:45:51;;;;;;;10.23;9.43;;;20.20;99.90;;;;;;5072147;28;20450;-75
2021/04/25 09:48:34;;;;;;;9.93;9.13;;;21.30;99.90;;;;;;5072313;28;20440;-76
2021/04/25 09:51:23;;;;;;;11.33;10.23;;;21.30;99.90;;;;;;5071982;28;20413;-76
2021/04/25 09:53:54;;;;;;;9.37;8.57;;;20.50;99.90;;;;;;5072066;28;20448;-76
2021/04/25 09:56:24;;;;;;;9.30;8.50;;;20.50;99.90;;;;;;5072010;28;20410;-76
2021/04/25 09:59:00;;;;;;;8.37;7.77;;;21.10;99.90;;;;;;5030274;28;20438;-76
2021/04/25 10:01:44;;;;;;;9.23;8.43;;;21.40;99.90;;;;;;5051523;28;20470;-76
2021/04/25 10:04:29;;;;;;;9.33;8.63;;;21.10;99.90;;;;;;5051940;28;20410;-76
2021/04/25 10:06:57;;;;;;;9.90;9.00;;;20.50;99.90;;;;;;5051382;28;20499;-76
2021/04/25 10:09:23;;;;;;;10.23;9.43;;;20.10;99.90;;;;;;5051849;28;20420;-75
2021/04/25 10:11:51;;;;;;;10.60;9.70;;;20.00;99.90;;;;;;5051891;28;20429;-75
2021/04/25 10:14:18;;;;;;;9.80;8.90;;;19.60;99.90;;;;;;5051852;28;20418;-75
2021/04/25 10:16:43;;;;;;;10.17;9.27;;;20.80;99.90;;;;;;5051764;28;20501;-74
2021/04/25 10:19:10;;;;;;;9.27;8.53;;;21.20;99.90;;;;;;5051698;28;20505;-75
2021/04/25 10:21:37;;;;;;;9.70;8.80;;;21.40;99.90;;;;;;5050619;28;20766;-75
2021/04/25 10:24:04;;;;;;;9.67;8.80;;;21.30;99.90;;;;;;5051542;28;20777;-76
2021/04/25 10:26:35;;;;;;;9.63;8.83;;;21.70;99.90;;;;;;5051017;28;20426;-75
2021/04/25 10:29:06;;;;;;;10.47;9.50;;;20.80;99.90;;;;;;5050821;28;20417;-75
2021/04/25 10:31:35;;;;;;;7.57;6.97;;;20.10;99.90;;;;;;5050958;28;20433;-75
2021/04/25 10:34:03;;;;;;;10.07;9.07;;;21.00;99.90;;;;;;5050735;28;20425;-76
2021/04/25 10:36:44;;;;;;;9.13;8.47;;;21.30;99.90;;;;;;5050201;28;20500;-75
2021/04/25 10:39:41;;;;;;;12.23;11.20;;;20.70;99.90;;;;;;5050764;28;20528;-75
2021/04/25 10:42:25;;;;;;;9.60;8.70;;;21.10;99.90;;;;;;5027791;28;20894;-76
2021/04/25 10:44:57;;;;;;;7.80;7.10;;;21.50;99.90;;;;;;5050548;28;20426;-75
2021/04/25 10:47:27;;;;;;;7.77;7.07;;;21.80;99.90;;;;;;5050601;28;21079;-75
2021/04/25 10:49:54;;;;;;;9.30;8.60;;;22.10;99.90;;;;;;5067994;28;20425;-76
2021/04/25 10:52:33;;;;;;;7.73;7.00;;;21.50;99.90;;;;;;5070849;28;20570;-77
2021/04/25 10:55:14;;;;;;;8.13;7.43;;;20.00;99.90;;;;;;5070840;28;20413;-76
2021/04/25 10:57:55;;;;;;;7.07;6.47;;;20.80;99.90;;;;;;5070829;28;20932;-74
2021/04/25 11:00:40;;;;;;;8.70;8.03;;;19.90;99.90;;;;;;5048585;28;20449;-75
2021/04/25 11:03:11;;;;;;;6.93;6.27;;;19.60;99.90;;;;;;5050109;28;20422;-75
2021/04/25 11:05:40;;;;;;;6.50;5.67;;;20.20;99.90;;;;;;5051925;28;20420;-75
2021/04/25 11:08:12;;;;;;;8.70;8.00;;;20.60;99.90;;;;;;5051815;28;20430;-75
2021/04/25 11:10:43;;;;;;;7.97;7.27;;;20.80;99.90;;;;;;5052165;28;20414;-75
2021/04/25 11:13:35;;;;;;;6.60;5.93;;;20.60;99.90;;;;;;5051836;28;20514;-75
2021/04/25 11:16:02;;;;;;;6.87;6.37;;;20.90;99.90;;;;;;5050967;28;20414;-75
2021/04/25 11:18:47;;;;;;;6.80;5.80;;;20.30;99.90;;;;;;5052491;28;20406;-76
2021/04/25 11:21:38;;;;;;;6.83;6.30;;;20.50;99.90;;;;;;5050310;28;20469;-76
2021/04/25 11:26:41;;;;;;;6.57;5.90;;;19.90;99.90;;;;;;5049487;28;20415;-75
2021/04/25 11:29:11;;;;;;;7.67;6.27;;;19.40;99.90;;;;;;5052463;28;20168;-75
2021/04/25 11:31:46;;;;;;;5.80;5.30;;;19.40;99.90;;;;;;5052468;28;20418;-76
2021/04/25 11:34:33;;;;;;;5.23;4.90;;;18.90;99.90;;;;;;5051111;28;20422;-76
2021/04/25 11:37:03;;;;;;;5.20;4.80;;;18.90;99.90;;;;;;5052190;28;20455;-75
2021/04/25 11:39:53;;;;;;;7.60;5.40;;;18.80;99.90;;;;;;5052229;28;20456;-75
2021/04/25 11:42:28;;;;;;;7.57;6.40;;;17.60;99.90;;;;;;5050275;28;20443;-76
2021/04/25 11:44:54;;;;;;;7.10;5.33;;;17.70;99.90;;;;;;5051319;28;20758;-74
2021/04/25 11:47:20;;;;;;;5.03;4.63;;;17.50;99.90;;;;;;5053060;28;20452;-75
2021/04/25 11:49:52;;;;;;;6.93;5.13;;;17.50;99.90;;;;;;5053213;28;20453;-74
2021/04/25 11:52:34;;;;;;;6.13;4.67;;;17.10;99.90;;;;;;5052953;28;20634;-75
2021/04/25 11:55:00;;;;;;;5.30;4.90;;;17.30;99.90;;;;;;5052186;28;20425;-74
2021/04/25 11:57:27;;;;;;;6.67;4.77;;;17.80;99.90;;;;;;5053108;28;20926;-74
2021/04/25 12:00:35;;;;;;;5.20;4.17;;;18.00;99.90;;;;;;5051597;28;20203;-74
2021/04/25 12:03:02;;;;;;;4.57;3.97;;;17.70;99.90;;;;;;5042336;28;20437;-74
2021/04/25 12:05:33;;;;;;;4.70;4.20;;;18.00;99.90;;;;;;5052389;28;20450;-74
2021/04/25 12:07:59;;;;;;;4.50;4.10;;;17.90;99.90;;;;;;5052726;28;20509;-74
2021/04/25 12:10:40;;;;;;;4.50;4.20;;;18.00;99.90;;;;;;5052849;28;20436;-75
2021/04/25 12:13:37;;;;;;;6.23;4.77;;;17.30;99.90;;;;;;5052229;28;20425;-75
2021/04/25 12:16:04;;;;;;;5.17;4.67;;;17.20;99.90;;;;;;5046760;28;20480;-75
2021/04/25 12:18:37;;;;;;;4.53;4.13;;;16.70;99.90;;;;;;5049760;28;20415;-75
2021/04/25 12:21:08;;;;;;;3.97;3.63;;;17.20;99.90;;;;;;5052664;28;20470;-76
2021/04/25 12:23:37;;;;;;;4.40;3.53;;;17.60;99.90;;;;;;5050415;28;20406;-75
2021/04/25 12:26:11;;;;;;;6.87;3.40;;;17.50;99.90;;;;;;5052285;28;20501;-74
2021/04/25 12:28:47;;;;;;;4.33;3.93;;;17.30;99.90;;;;;;5049312;28;20411;-74
2021/04/25 12:31:15;;;;;;;6.87;4.70;;;17.00;99.90;;;;;;5050334;28;20425;-75
2021/04/25 12:33:42;;;;;;;4.53;4.20;;;17.20;99.90;;;;;;5053722;28;21066;-75
2021/04/25 12:36:12;;;;;;;5.27;4.77;;;17.20;99.90;;;;;;5052212;28;20981;-74
2021/04/25 12:38:39;;;;;;;5.47;4.97;;;17.00;99.90;;;;;;5052772;28;20434;-75
2021/04/25 12:41:10;;;;;;;3.90;3.60;;;17.30;99.90;;;;;;5053138;28;20488;-74
2021/04/25 12:43:56;;;;;;;4.80;4.30;;;17.00;99.90;;;;;;5052657;28;20449;-74
2021/04/25 12:46:27;;;;;;;6.07;4.03;;;17.10;99.90;;;;;;5045346;28;20447;-75
2021/04/25 12:48:53;;;;;;;6.80;4.13;;;17.30;99.90;;;;;;5050417;28;20422;-76
2021/04/25 12:51:27;;;;;;;5.33;4.63;;;16.90;99.90;;;;;;5050833;28;20817;-76
2021/04/25 12:53:56;;;;;;;7.00;4.67;;;17.00;99.90;;;;;;5067498;28;20955;-76
2021/04/25 12:56:27;;;;;;;4.20;3.80;;;17.30;99.90;;;;;;5068408;28;20560;-76
2021/04/25 12:59:17;;;;;;;7.13;4.50;;;17.40;99.90;;;;;;5051943;28;20419;-76